Centreville, Mississippi
Current Conditions -  °F | °C
As of 10:15 PM on Friday 19 Dec 2014 (Local Time) from KHZR Reporting Station
Light Rain Light Rain  
Wind Chill: 45°   Ceiling: 600
Heat Index: 47°   Visibility: 10mi
Dew Point: 46°   Wind: 6mph
Humidity: 96%   Direction: 330°NNW
Pressure: 30.13"   Gusts: NA
Location:  31.09°N, 91.07°W
Report Text: KHZR 200415Z AUTO 33005KT 10SM -RA OVC006 09/08 A3013 RMK AO2 T00860080
Loading
Personal Weather Stations






























Interactive Weather Map New forecast layout! Learn more

10-Day Weather Forecast

Advertisements
Track Severe Weather on mobile